sensor_id;sensor_type;location;lat;lon;timestamp;temperature;humidity
51500;DHT22;39101;53.478;6.158;2023-03-31T00:01:39;9.50;99.90
51500;DHT22;39101;53.478;6.158;2023-03-31T00:04:09;9.30;99.90
51500;DHT22;39101;53.478;6.158;2023-03-31T00:06:38;9.50;99.90
51500;DHT22;39101;53.478;6.158;2023-03-31T00:09:14;9.20;99.90
51500;DHT22;39101;53.478;6.158;2023-03-31T00:11:47;9.30;99.90
51500;DHT22;39101;53.478;6.158;2023-03-31T00:14:14;9.20;99.90
51500;DHT22;39101;53.478;6.158;2023-03-31T00:16:42;9.40;99.90
51500;DHT22;39101;53.478;6.158;2023-03-31T00:19:10;9.40;99.90
51500;DHT22;39101;53.478;6.158;2023-03-31T00:21:46;9.40;99.90
51500;DHT22;39101;53.478;6.158;2023-03-31T00:24:13;9.20;99.90
51500;DHT22;39101;53.478;6.158;2023-03-31T00:26:39;9.40;99.90
51500;DHT22;39101;53.478;6.158;2023-03-31T00:29:07;9.30;99.90
51500;DHT22;39101;53.478;6.158;2023-03-31T00:31:34;9.20;99.90
51500;DHT22;39101;53.478;6.158;2023-03-31T00:34:00;9.30;99.90
51500;DHT22;39101;53.478;6.158;2023-03-31T00:36:26;9.40;99.90
51500;DHT22;39101;53.478;6.158;2023-03-31T00:39:00;9.60;99.90
51500;DHT22;39101;53.478;6.158;2023-03-31T00:41:30;9.40;99.90
51500;DHT22;39101;53.478;6.158;2023-03-31T00:49:44;9.30;99.90
51500;DHT22;39101;53.478;6.158;2023-03-31T00:52:18;9.40;99.90
51500;DHT22;39101;53.478;6.158;2023-03-31T00:55:04;9.20;99.90
51500;DHT22;39101;53.478;6.158;2023-03-31T00:57:32;9.30;99.90
51500;DHT22;39101;53.478;6.158;2023-03-31T01:00:05;9.30;99.90
51500;DHT22;39101;53.478;6.158;2023-03-31T01:02:53;9.20;99.90
51500;DHT22;39101;53.478;6.158;2023-03-31T01:05:44;9.20;99.90
51500;DHT22;39101;53.478;6.158;2023-03-31T01:08:12;9.20;99.90
51500;DHT22;39101;53.478;6.158;2023-03-31T01:10:51;9.30;99.90
51500;DHT22;39101;53.478;6.158;2023-03-31T01:13:17;9.20;99.90
51500;DHT22;39101;53.478;6.158;2023-03-31T01:15:44;9.30;99.90
51500;DHT22;39101;53.478;6.158;2023-03-31T01:18:11;9.30;99.90
51500;DHT22;39101;53.478;6.158;2023-03-31T01:29:13;9.20;99.90
51500;DHT22;39101;53.478;6.158;2023-03-31T01:32:08;8.90;99.90
51500;DHT22;39101;53.478;6.158;2023-03-31T01:45:18;9.00;99.90
51500;DHT22;39101;53.478;6.158;2023-03-31T01:53:51;8.70;99.90
51500;DHT22;39101;53.478;6.158;2023-03-31T01:56:27;8.80;99.90
51500;DHT22;39101;53.478;6.158;2023-03-31T01:59:09;8.70;99.90
51500;DHT22;39101;53.478;6.158;2023-03-31T02:01:43;8.80;99.90
51500;DHT22;39101;53.478;6.158;2023-03-31T02:06:42;8.80;99.90
51500;DHT22;39101;53.478;6.158;2023-03-31T02:09:20;9.00;99.90
51500;DHT22;39101;53.478;6.158;2023-03-31T02:11:47;9.10;99.90
51500;DHT22;39101;53.478;6.158;2023-03-31T02:14:18;9.10;99.90
51500;DHT22;39101;53.478;6.158;2023-03-31T02:16:50;9.00;99.90
51500;DHT22;39101;53.478;6.158;2023-03-31T02:19:17;8.90;99.90
51500;DHT22;39101;53.478;6.158;2023-03-31T02:21:46;8.90;99.90
51500;DHT22;39101;53.478;6.158;2023-03-31T02:24:15;9.10;99.90
51500;DHT22;39101;53.478;6.158;2023-03-31T02:26:58;9.00;99.90
51500;DHT22;39101;53.478;6.158;2023-03-31T02:29:28;9.00;99.90
51500;DHT22;39101;53.478;6.158;2023-03-31T02:32:09;9.00;99.90
51500;DHT22;39101;53.478;6.158;2023-03-31T02:34:36;9.00;99.90
51500;DHT22;39101;53.478;6.158;2023-03-31T02:37:02;8.80;99.90
51500;DHT22;39101;53.478;6.158;2023-03-31T02:39:35;9.00;99.90
51500;DHT22;39101;53.478;6.158;2023-03-31T02:42:02;9.00;99.90
51500;DHT22;39101;53.478;6.158;2023-03-31T02:44:35;8.90;99.90
51500;DHT22;39101;53.478;6.158;2023-03-31T02:47:03;8.70;99.90
51500;DHT22;39101;53.478;6.158;2023-03-31T02:49:30;9.00;99.90
51500;DHT22;39101;53.478;6.158;2023-03-31T02:52:32;8.80;99.90
51500;DHT22;39101;53.478;6.158;2023-03-31T02:58:02;8.90;99.90
51500;DHT22;39101;53.478;6.158;2023-03-31T03:00:51;8.80;99.90
51500;DHT22;39101;53.478;6.158;2023-03-31T03:03:34;8.80;99.90
51500;DHT22;39101;53.478;6.158;2023-03-31T03:11:24;9.00;99.90
51500;DHT22;39101;53.478;6.158;2023-03-31T03:17:11;9.00;99.90
51500;DHT22;39101;53.478;6.158;2023-03-31T03:19:40;8.80;99.90
51500;DHT22;39101;53.478;6.158;2023-03-31T03:22:07;9.10;99.90
51500;DHT22;39101;53.478;6.158;2023-03-31T03:24:33;9.00;99.90
51500;DHT22;39101;53.478;6.158;2023-03-31T03:26:59;8.80;99.90
51500;DHT22;39101;53.478;6.158;2023-03-31T03:29:25;9.00;99.90
51500;DHT22;39101;53.478;6.158;2023-03-31T03:31:52;8.90;99.90
51500;DHT22;39101;53.478;6.158;2023-03-31T03:34:18;8.80;99.90
51500;DHT22;39101;53.478;6.158;2023-03-31T03:36:45;8.80;99.90
51500;DHT22;39101;53.478;6.158;2023-03-31T03:39:11;9.00;99.90
51500;DHT22;39101;53.478;6.158;2023-03-31T03:41:37;8.70;99.90
51500;DHT22;39101;53.478;6.158;2023-03-31T03:44:03;9.00;99.90
51500;DHT22;39101;53.478;6.158;2023-03-31T03:46:29;8.80;99.90
51500;DHT22;39101;53.478;6.158;2023-03-31T03:48:54;9.00;99.90
51500;DHT22;39101;53.478;6.158;2023-03-31T03:51:21;9.00;99.90
51500;DHT22;39101;53.478;6.158;2023-03-31T03:53:47;8.90;99.90
51500;DHT22;39101;53.478;6.158;2023-03-31T03:56:13;8.70;99.90
51500;DHT22;39101;53.478;6.158;2023-03-31T03:58:38;8.70;99.90
51500;DHT22;39101;53.478;6.158;2023-03-31T04:01:04;8.90;99.90
51500;DHT22;39101;53.478;6.158;2023-03-31T04:03:30;8.90;99.90
51500;DHT22;39101;53.478;6.158;2023-03-31T04:05:56;8.70;99.90
51500;DHT22;39101;53.478;6.158;2023-03-31T04:08:22;8.90;99.90
51500;DHT22;39101;53.478;6.158;2023-03-31T04:10:48;8.70;99.90
51500;DHT22;39101;53.478;6.158;2023-03-31T04:13:16;8.80;99.90
51500;DHT22;39101;53.478;6.158;2023-03-31T04:15:42;8.80;99.90
51500;DHT22;39101;53.478;6.158;2023-03-31T04:18:08;8.80;99.90
51500;DHT22;39101;53.478;6.158;2023-03-31T04:20:44;9.10;99.90
51500;DHT22;39101;53.478;6.158;2023-03-31T04:23:10;9.00;99.90
51500;DHT22;39101;53.478;6.158;2023-03-31T04:25:39;8.90;99.90
51500;DHT22;39101;53.478;6.158;2023-03-31T04:28:10;9.10;99.90
51500;DHT22;39101;53.478;6.158;2023-03-31T04:30:39;8.80;99.90
51500;DHT22;39101;53.478;6.158;2023-03-31T04:33:05;8.90;99.90
51500;DHT22;39101;53.478;6.158;2023-03-31T04:35:31;9.00;99.90
51500;DHT22;39101;53.478;6.158;2023-03-31T04:38:21;9.00;99.90
51500;DHT22;39101;53.478;6.158;2023-03-31T04:40:49;9.10;99.90
51500;DHT22;39101;53.478;6.158;2023-03-31T04:43:16;8.90;99.90
51500;DHT22;39101;53.478;6.158;2023-03-31T04:45:42;8.90;99.90
51500;DHT22;39101;53.478;6.158;2023-03-31T04:48:08;8.90;99.90
51500;DHT22;39101;53.478;6.158;2023-03-31T04:50:34;8.80;99.90
51500;DHT22;39101;53.478;6.158;2023-03-31T04:53:00;9.10;99.90
51500;DHT22;39101;53.478;6.158;2023-03-31T04:55:26;8.90;99.90
51500;DHT22;39101;53.478;6.158;2023-03-31T04:57:51;8.80;99.90
51500;DHT22;39101;53.478;6.158;2023-03-31T05:00:18;8.80;99.90
51500;DHT22;39101;53.478;6.158;2023-03-31T05:02:44;9.00;99.90
51500;DHT22;39101;53.478;6.158;2023-03-31T05:05:09;8.80;99.90
51500;DHT22;39101;53.478;6.158;2023-03-31T05:07:35;9.00;99.90
51500;DHT22;39101;53.478;6.158;2023-03-31T05:10:01;8.90;99.90
51500;DHT22;39101;53.478;6.158;2023-03-31T05:12:27;9.00;99.90
51500;DHT22;39101;53.478;6.158;2023-03-31T05:14:52;9.10;99.90
51500;DHT22;39101;53.478;6.158;2023-03-31T05:17:18;9.10;99.90
51500;DHT22;39101;53.478;6.158;2023-03-31T05:19:44;9.00;99.90
51500;DHT22;39101;53.478;6.158;2023-03-31T05:22:09;8.90;99.90
51500;DHT22;39101;53.478;6.158;2023-03-31T05:24:35;9.10;99.90
51500;DHT22;39101;53.478;6.158;2023-03-31T05:27:01;8.90;99.90
51500;DHT22;39101;53.478;6.158;2023-03-31T05:29:27;9.10;99.90
51500;DHT22;39101;53.478;6.158;2023-03-31T05:31:53;9.20;99.90
51500;DHT22;39101;53.478;6.158;2023-03-31T05:34:19;9.10;99.90
51500;DHT22;39101;53.478;6.158;2023-03-31T05:36:45;9.10;99.90
51500;DHT22;39101;53.478;6.158;2023-03-31T05:39:12;9.20;99.90
51500;DHT22;39101;53.478;6.158;2023-03-31T05:41:39;8.90;99.90
51500;DHT22;39101;53.478;6.158;2023-03-31T05:44:05;9.20;99.90
51500;DHT22;39101;53.478;6.158;2023-03-31T05:46:30;9.00;99.90
51500;DHT22;39101;53.478;6.158;2023-03-31T05:48:56;9.20;99.90
51500;DHT22;39101;53.478;6.158;2023-03-31T05:51:23;9.20;99.90
51500;DHT22;39101;53.478;6.158;2023-03-31T05:53:49;9.10;99.90
51500;DHT22;39101;53.478;6.158;2023-03-31T05:56:15;9.00;99.90
51500;DHT22;39101;53.478;6.158;2023-03-31T05:58:40;9.00;99.90
51500;DHT22;39101;53.478;6.158;2023-03-31T06:01:12;9.00;99.90
51500;DHT22;39101;53.478;6.158;2023-03-31T06:03:39;8.90;99.90
51500;DHT22;39101;53.478;6.158;2023-03-31T06:06:07;9.10;99.90
51500;DHT22;39101;53.478;6.158;2023-03-31T06:08:34;9.10;99.90
51500;DHT22;39101;53.478;6.158;2023-03-31T06:11:02;9.10;99.90
51500;DHT22;39101;53.478;6.158;2023-03-31T06:13:28;9.00;99.90
51500;DHT22;39101;53.478;6.158;2023-03-31T06:15:58;9.20;99.90
51500;DHT22;39101;53.478;6.158;2023-03-31T06:18:26;9.00;99.90
51500;DHT22;39101;53.478;6.158;2023-03-31T06:20:53;9.30;99.90
51500;DHT22;39101;53.478;6.158;2023-03-31T06:23:20;9.20;99.90
51500;DHT22;39101;53.478;6.158;2023-03-31T06:25:45;9.00;99.90
51500;DHT22;39101;53.478;6.158;2023-03-31T06:28:11;9.00;99.90
51500;DHT22;39101;53.478;6.158;2023-03-31T06:30:37;9.10;99.90
51500;DHT22;39101;53.478;6.158;2023-03-31T06:33:03;9.00;99.90
51500;DHT22;39101;53.478;6.158;2023-03-31T06:35:28;9.00;99.90
51500;DHT22;39101;53.478;6.158;2023-03-31T06:37:54;9.30;99.90
51500;DHT22;39101;53.478;6.158;2023-03-31T06:40:20;9.20;99.90
51500;DHT22;39101;53.478;6.158;2023-03-31T06:42:45;9.30;99.90
51500;DHT22;39101;53.478;6.158;2023-03-31T06:45:11;9.20;99.90
51500;DHT22;39101;53.478;6.158;2023-03-31T06:47:37;9.10;99.90
51500;DHT22;39101;53.478;6.158;2023-03-31T06:50:04;9.10;99.90
51500;DHT22;39101;53.478;6.158;2023-03-31T06:52:30;9.30;99.90
51500;DHT22;39101;53.478;6.158;2023-03-31T06:54:56;9.20;99.90
51500;DHT22;39101;53.478;6.158;2023-03-31T06:57:22;9.10;99.90
51500;DHT22;39101;53.478;6.158;2023-03-31T06:59:48;9.10;99.90
51500;DHT22;39101;53.478;6.158;2023-03-31T07:02:13;9.10;99.90
51500;DHT22;39101;53.478;6.158;2023-03-31T07:04:39;9.30;99.90
51500;DHT22;39101;53.478;6.158;2023-03-31T07:07:05;9.20;99.90
51500;DHT22;39101;53.478;6.158;2023-03-31T07:09:30;9.40;99.90
51500;DHT22;39101;53.478;6.158;2023-03-31T07:11:56;9.20;99.90
51500;DHT22;39101;53.478;6.158;2023-03-31T07:14:22;9.40;99.90
51500;DHT22;39101;53.478;6.158;2023-03-31T07:16:48;9.40;99.90
51500;DHT22;39101;53.478;6.158;2023-03-31T07:19:15;9.30;99.90
51500;DHT22;39101;53.478;6.158;2023-03-31T07:21:40;9.30;99.90
51500;DHT22;39101;53.478;6.158;2023-03-31T07:24:06;9.40;99.90
51500;DHT22;39101;53.478;6.158;2023-03-31T07:26:32;9.40;99.90
51500;DHT22;39101;53.478;6.158;2023-03-31T07:28:58;9.30;99.90
51500;DHT22;39101;53.478;6.158;2023-03-31T07:31:23;9.40;99.90
51500;DHT22;39101;53.478;6.158;2023-03-31T07:33:49;9.40;99.90
51500;DHT22;39101;53.478;6.158;2023-03-31T07:36:15;9.30;99.90
51500;DHT22;39101;53.478;6.158;2023-03-31T07:38:43;9.30;99.90
51500;DHT22;39101;53.478;6.158;2023-03-31T07:41:12;9.60;99.90
51500;DHT22;39101;53.478;6.158;2023-03-31T07:43:38;9.40;99.90
51500;DHT22;39101;53.478;6.158;2023-03-31T07:46:04;9.50;99.90
51500;DHT22;39101;53.478;6.158;2023-03-31T07:48:30;9.30;99.90
51500;DHT22;39101;53.478;6.158;2023-03-31T07:50:55;9.60;99.90
51500;DHT22;39101;53.478;6.158;2023-03-31T07:53:21;9.50;99.90
51500;DHT22;39101;53.478;6.158;2023-03-31T07:55:47;9.60;99.90
51500;DHT22;39101;53.478;6.158;2023-03-31T07:58:13;9.40;99.90
51500;DHT22;39101;53.478;6.158;2023-03-31T08:00:39;9.50;99.90
51500;DHT22;39101;53.478;6.158;2023-03-31T08:03:04;9.40;99.90
51500;DHT22;39101;53.478;6.158;2023-03-31T08:05:31;9.70;99.90
51500;DHT22;39101;53.478;6.158;2023-03-31T08:07:57;9.50;99.90
51500;DHT22;39101;53.478;6.158;2023-03-31T08:10:25;9.50;99.90
51500;DHT22;39101;53.478;6.158;2023-03-31T08:12:51;9.80;99.90
51500;DHT22;39101;53.478;6.158;2023-03-31T08:15:17;9.80;99.90
51500;DHT22;39101;53.478;6.158;2023-03-31T08:17:43;9.80;99.90
51500;DHT22;39101;53.478;6.158;2023-03-31T08:20:10;9.60;99.90
51500;DHT22;39101;53.478;6.158;2023-03-31T08:22:36;9.60;99.90
51500;DHT22;39101;53.478;6.158;2023-03-31T08:25:04;9.80;99.90
51500;DHT22;39101;53.478;6.158;2023-03-31T08:27:34;9.90;99.90
51500;DHT22;39101;53.478;6.158;2023-03-31T08:30:00;9.80;99.90
51500;DHT22;39101;53.478;6.158;2023-03-31T08:32:30;10.00;99.90
51500;DHT22;39101;53.478;6.158;2023-03-31T08:34:56;10.00;99.90
51500;DHT22;39101;53.478;6.158;2023-03-31T08:37:22;9.80;99.90
51500;DHT22;39101;53.478;6.158;2023-03-31T08:39:48;9.90;99.90
51500;DHT22;39101;53.478;6.158;2023-03-31T08:45:10;10.30;99.90
51500;DHT22;39101;53.478;6.158;2023-03-31T08:47:40;10.00;99.90
51500;DHT22;39101;53.478;6.158;2023-03-31T08:50:12;10.20;99.90
51500;DHT22;39101;53.478;6.158;2023-03-31T08:52:44;10.20;99.90
51500;DHT22;39101;53.478;6.158;2023-03-31T08:55:26;10.20;99.90
51500;DHT22;39101;53.478;6.158;2023-03-31T08:58:10;10.00;99.90
51500;DHT22;39101;53.478;6.158;2023-03-31T09:00:45;10.00;99.90
51500;DHT22;39101;53.478;6.158;2023-03-31T09:06:04;9.70;99.90
51500;DHT22;39101;53.478;6.158;2023-03-31T09:08:35;9.80;99.90
51500;DHT22;39101;53.478;6.158;2023-03-31T09:11:34;9.60;99.90
51500;DHT22;39101;53.478;6.158;2023-03-31T09:14:12;9.90;99.90
51500;DHT22;39101;53.478;6.158;2023-03-31T09:19:35;9.80;99.90
51500;DHT22;39101;53.478;6.158;2023-03-31T09:22:05;9.60;99.90
51500;DHT22;39101;53.478;6.158;2023-03-31T09:24:45;9.80;99.90
51500;DHT22;39101;53.478;6.158;2023-03-31T09:27:12;9.50;99.90
51500;DHT22;39101;53.478;6.158;2023-03-31T09:32:17;9.50;99.90
51500;DHT22;39101;53.478;6.158;2023-03-31T09:34:45;9.90;99.90
51500;DHT22;39101;53.478;6.158;2023-03-31T09:37:11;9.90;99.90
51500;DHT22;39101;53.478;6.158;2023-03-31T09:39:38;9.70;99.90
51500;DHT22;39101;53.478;6.158;2023-03-31T09:42:04;9.90;99.90
51500;DHT22;39101;53.478;6.158;2023-03-31T09:44:39;9.90;99.90
51500;DHT22;39101;53.478;6.158;2023-03-31T09:47:14;9.80;99.90
51500;DHT22;39101;53.478;6.158;2023-03-31T09:49:44;10.20;99.90
51500;DHT22;39101;53.478;6.158;2023-03-31T09:52:22;9.90;99.90
51500;DHT22;39101;53.478;6.158;2023-03-31T09:54:52;10.20;99.90
51500;DHT22;39101;53.478;6.158;2023-03-31T09:57:25;10.30;99.90
51500;DHT22;39101;53.478;6.158;2023-03-31T09:59:52;10.00;99.90
51500;DHT22;39101;53.478;6.158;2023-03-31T10:02:34;10.10;99.90
51500;DHT22;39101;53.478;6.158;2023-03-31T10:05:01;10.20;99.90
51500;DHT22;39101;53.478;6.158;2023-03-31T10:07:28;10.60;99.90
51500;DHT22;39101;53.478;6.158;2023-03-31T10:09:54;10.60;99.90
51500;DHT22;39101;53.478;6.158;2023-03-31T10:12:24;10.40;99.90
51500;DHT22;39101;53.478;6.158;2023-03-31T10:14:53;10.50;99.90
51500;DHT22;39101;53.478;6.158;2023-03-31T10:17:21;10.80;99.90
51500;DHT22;39101;53.478;6.158;2023-03-31T10:19:53;10.80;99.90
51500;DHT22;39101;53.478;6.158;2023-03-31T10:24:49;11.20;99.90
51500;DHT22;39101;53.478;6.158;2023-03-31T10:29:54;11.20;99.90
51500;DHT22;39101;53.478;6.158;2023-03-31T10:32:32;11.40;99.90
51500;DHT22;39101;53.478;6.158;2023-03-31T10:35:04;11.60;99.90
51500;DHT22;39101;53.478;6.158;2023-03-31T10:37:31;11.50;99.90
51500;DHT22;39101;53.478;6.158;2023-03-31T10:40:02;11.30;99.90
51500;DHT22;39101;53.478;6.158;2023-03-31T10:42:30;11.40;99.90
51500;DHT22;39101;53.478;6.158;2023-03-31T10:45:24;11.30;99.90
51500;DHT22;39101;53.478;6.158;2023-03-31T10:47:56;11.40;99.90
51500;DHT22;39101;53.478;6.158;2023-03-31T10:50:31;11.50;99.90
51500;DHT22;39101;53.478;6.158;2023-03-31T10:53:05;11.50;99.90
51500;DHT22;39101;53.478;6.158;2023-03-31T10:56:01;11.40;99.90
51500;DHT22;39101;53.478;6.158;2023-03-31T11:02:01;11.30;99.90
51500;DHT22;39101;53.478;6.158;2023-03-31T11:10:02;11.20;99.90
51500;DHT22;39101;53.478;6.158;2023-03-31T11:12:37;11.30;99.90
51500;DHT22;39101;53.478;6.158;2023-03-31T11:15:07;11.40;99.90
51500;DHT22;39101;53.478;6.158;2023-03-31T11:17:51;11.60;99.90
51500;DHT22;39101;53.478;6.158;2023-03-31T11:20:23;11.70;99.90
51500;DHT22;39101;53.478;6.158;2023-03-31T11:23:09;11.70;99.90
51500;DHT22;39101;53.478;6.158;2023-03-31T11:26:00;11.60;99.90
51500;DHT22;39101;53.478;6.158;2023-03-31T11:28:47;11.50;99.90
51500;DHT22;39101;53.478;6.158;2023-03-31T11:31:43;11.50;99.90
51500;DHT22;39101;53.478;6.158;2023-03-31T11:34:15;11.70;99.90
51500;DHT22;39101;53.478;6.158;2023-03-31T11:39:27;11.90;99.90
51500;DHT22;39101;53.478;6.158;2023-03-31T11:42:10;12.00;99.90
51500;DHT22;39101;53.478;6.158;2023-03-31T11:44:41;12.10;99.90
51500;DHT22;39101;53.478;6.158;2023-03-31T11:47:12;12.40;99.90
51500;DHT22;39101;53.478;6.158;2023-03-31T11:49:50;12.30;99.90
51500;DHT22;39101;53.478;6.158;2023-03-31T11:52:19;12.60;99.90
51500;DHT22;39101;53.478;6.158;2023-03-31T11:54:50;12.50;99.90
51500;DHT22;39101;53.478;6.158;2023-03-31T11:57:26;12.30;99.90
51500;DHT22;39101;53.478;6.158;2023-03-31T11:59:57;12.30;99.90
51500;DHT22;39101;53.478;6.158;2023-03-31T12:05:15;12.30;99.90
51500;DHT22;39101;53.478;6.158;2023-03-31T12:08:05;12.70;99.90
51500;DHT22;39101;53.478;6.158;2023-03-31T12:10:36;13.00;99.90
51500;DHT22;39101;53.478;6.158;2023-03-31T12:13:45;13.10;99.90
51500;DHT22;39101;53.478;6.158;2023-03-31T12:16:26;13.40;99.90
51500;DHT22;39101;53.478;6.158;2023-03-31T12:19:01;13.40;99.90
51500;DHT22;39101;53.478;6.158;2023-03-31T12:21:31;13.20;99.90
51500;DHT22;39101;53.478;6.158;2023-03-31T12:24:00;13.30;99.90
51500;DHT22;39101;53.478;6.158;2023-03-31T12:29:01;13.00;99.90
51500;DHT22;39101;53.478;6.158;2023-03-31T12:31:29;13.10;99.90
51500;DHT22;39101;53.478;6.158;2023-03-31T12:34:12;12.90;99.90
51500;DHT22;39101;53.478;6.158;2023-03-31T12:37:03;12.70;99.90
51500;DHT22;39101;53.478;6.158;2023-03-31T12:44:59;12.80;99.90
51500;DHT22;39101;53.478;6.158;2023-03-31T12:47:40;12.70;99.90
51500;DHT22;39101;53.478;6.158;2023-03-31T12:55:39;12.60;99.90
51500;DHT22;39101;53.478;6.158;2023-03-31T13:01:21;12.10;99.90
51500;DHT22;39101;53.478;6.158;2023-03-31T13:14:21;12.00;99.90
51500;DHT22;39101;53.478;6.158;2023-03-31T13:16:49;12.00;99.90
51500;DHT22;39101;53.478;6.158;2023-03-31T13:19:45;12.00;99.90
51500;DHT22;39101;53.478;6.158;2023-03-31T13:27:57;12.60;99.90
51500;DHT22;39101;53.478;6.158;2023-03-31T13:35:47;13.30;99.90
51500;DHT22;39101;53.478;6.158;2023-03-31T13:46:57;12.70;99.90
51500;DHT22;39101;53.478;6.158;2023-03-31T13:51:59;12.30;99.90
51500;DHT22;39101;53.478;6.158;2023-03-31T13:54:34;12.30;99.90
51500;DHT22;39101;53.478;6.158;2023-03-31T14:00:31;12.00;99.90
51500;DHT22;39101;53.478;6.158;2023-03-31T14:05:51;11.60;99.90
51500;DHT22;39101;53.478;6.158;2023-03-31T14:08:32;11.60;99.90
51500;DHT22;39101;53.478;6.158;2023-03-31T14:11:25;11.80;99.90
51500;DHT22;39101;53.478;6.158;2023-03-31T14:16:26;11.70;99.90
51500;DHT22;39101;53.478;6.158;2023-03-31T14:21:51;12.00;99.90
51500;DHT22;39101;53.478;6.158;2023-03-31T14:24:57;12.20;99.90
51500;DHT22;39101;53.478;6.158;2023-03-31T14:30:53;12.10;99.90
51500;DHT22;39101;53.478;6.158;2023-03-31T14:36:39;12.40;99.90
51500;DHT22;39101;53.478;6.158;2023-03-31T14:39:13;12.40;99.90
51500;DHT22;39101;53.478;6.158;2023-03-31T14:41:40;12.50;99.90
51500;DHT22;39101;53.478;6.158;2023-03-31T14:44:13;12.50;99.90
51500;DHT22;39101;53.478;6.158;2023-03-31T14:46:40;12.50;99.90
51500;DHT22;39101;53.478;6.158;2023-03-31T14:51:42;12.40;99.90
51500;DHT22;39101;53.478;6.158;2023-03-31T14:54:17;12.40;99.90
51500;DHT22;39101;53.478;6.158;2023-03-31T14:56:48;12.10;99.90
51500;DHT22;39101;53.478;6.158;2023-03-31T14:59:21;12.00;99.90
51500;DHT22;39101;53.478;6.158;2023-03-31T15:01:49;12.00;99.90
51500;DHT22;39101;53.478;6.158;2023-03-31T15:04:19;12.10;99.90
51500;DHT22;39101;53.478;6.158;2023-03-31T15:06:46;12.20;99.90
51500;DHT22;39101;53.478;6.158;2023-03-31T15:09:28;12.50;99.90
51500;DHT22;39101;53.478;6.158;2023-03-31T15:12:07;12.50;99.90
51500;DHT22;39101;53.478;6.158;2023-03-31T15:14:44;12.30;99.90
51500;DHT22;39101;53.478;6.158;2023-03-31T15:17:40;12.40;99.90
51500;DHT22;39101;53.478;6.158;2023-03-31T15:20:35;12.30;99.90
51500;DHT22;39101;53.478;6.158;2023-03-31T15:23:17;12.00;99.90
51500;DHT22;39101;53.478;6.158;2023-03-31T15:25:46;11.90;99.90
51500;DHT22;39101;53.478;6.158;2023-03-31T15:28:15;11.90;99.90
51500;DHT22;39101;53.478;6.158;2023-03-31T15:30:42;11.90;99.90
51500;DHT22;39101;53.478;6.158;2023-03-31T15:33:29;11.80;99.90
51500;DHT22;39101;53.478;6.158;2023-03-31T15:35:56;11.70;99.90
51500;DHT22;39101;53.478;6.158;2023-03-31T15:38:26;11.40;99.90
51500;DHT22;39101;53.478;6.158;2023-03-31T15:40:54;11.30;99.90
51500;DHT22;39101;53.478;6.158;2023-03-31T15:43:31;11.40;99.90
51500;DHT22;39101;53.478;6.158;2023-03-31T15:46:10;11.10;99.90
51500;DHT22;39101;53.478;6.158;2023-03-31T15:48:52;11.10;99.90
51500;DHT22;39101;53.478;6.158;2023-03-31T15:51:29;11.10;99.90
51500;DHT22;39101;53.478;6.158;2023-03-31T15:53:55;11.30;99.90
51500;DHT22;39101;53.478;6.158;2023-03-31T15:56:39;11.30;99.90
51500;DHT22;39101;53.478;6.158;2023-03-31T16:01:47;11.20;99.90
51500;DHT22;39101;53.478;6.158;2023-03-31T16:04:14;11.30;99.90
51500;DHT22;39101;53.478;6.158;2023-03-31T16:06:44;11.10;99.90
51500;DHT22;39101;53.478;6.158;2023-03-31T16:09:13;11.10;99.90
51500;DHT22;39101;53.478;6.158;2023-03-31T16:11:50;11.10;99.90
51500;DHT22;39101;53.478;6.158;2023-03-31T16:14:30;11.20;99.90
51500;DHT22;39101;53.478;6.158;2023-03-31T16:17:07;11.50;99.90
51500;DHT22;39101;53.478;6.158;2023-03-31T16:19:42;11.50;99.90
51500;DHT22;39101;53.478;6.158;2023-03-31T16:22:13;11.40;99.90
51500;DHT22;39101;53.478;6.158;2023-03-31T16:24:40;11.50;99.90
51500;DHT22;39101;53.478;6.158;2023-03-31T16:27:06;11.50;99.90
51500;DHT22;39101;53.478;6.158;2023-03-31T16:29:35;11.50;99.90
51500;DHT22;39101;53.478;6.158;2023-03-31T16:32:19;11.30;99.90
51500;DHT22;39101;53.478;6.158;2023-03-31T16:34:58;11.20;99.90
51500;DHT22;39101;53.478;6.158;2023-03-31T16:37:25;11.30;99.90
51500;DHT22;39101;53.478;6.158;2023-03-31T16:39:51;11.40;99.90
51500;DHT22;39101;53.478;6.158;2023-03-31T16:42:18;11.30;99.90
51500;DHT22;39101;53.478;6.158;2023-03-31T16:44:44;11.20;99.90
51500;DHT22;39101;53.478;6.158;2023-03-31T16:47:11;11.30;99.90
51500;DHT22;39101;53.478;6.158;2023-03-31T16:49:38;11.00;99.90
51500;DHT22;39101;53.478;6.158;2023-03-31T16:52:03;11.20;99.90
51500;DHT22;39101;53.478;6.158;2023-03-31T16:54:30;10.90;99.90
51500;DHT22;39101;53.478;6.158;2023-03-31T16:56:56;10.90;99.90
51500;DHT22;39101;53.478;6.158;2023-03-31T16:59:22;11.10;99.90
51500;DHT22;39101;53.478;6.158;2023-03-31T17:01:49;10.80;99.90
51500;DHT22;39101;53.478;6.158;2023-03-31T17:04:15;11.10;99.90
51500;DHT22;39101;53.478;6.158;2023-03-31T17:06:40;10.90;99.90
51500;DHT22;39101;53.478;6.158;2023-03-31T17:09:07;10.90;99.90
51500;DHT22;39101;53.478;6.158;2023-03-31T17:11:32;10.70;99.90
51500;DHT22;39101;53.478;6.158;2023-03-31T17:13:58;10.70;99.90
51500;DHT22;39101;53.478;6.158;2023-03-31T17:16:24;10.90;99.90
51500;DHT22;39101;53.478;6.158;2023-03-31T17:18:51;10.70;99.90
51500;DHT22;39101;53.478;6.158;2023-03-31T17:21:18;10.50;99.90
51500;DHT22;39101;53.478;6.158;2023-03-31T17:23:44;10.80;99.90
51500;DHT22;39101;53.478;6.158;2023-03-31T17:26:11;10.50;99.90
51500;DHT22;39101;53.478;6.158;2023-03-31T17:28:38;10.50;99.90
51500;DHT22;39101;53.478;6.158;2023-03-31T17:31:12;10.70;99.90
51500;DHT22;39101;53.478;6.158;2023-03-31T17:33:39;10.40;99.90
51500;DHT22;39101;53.478;6.158;2023-03-31T17:36:06;10.40;99.90
51500;DHT22;39101;53.478;6.158;2023-03-31T17:38:32;10.60;99.90
51500;DHT22;39101;53.478;6.158;2023-03-31T17:41:06;10.60;99.90
51500;DHT22;39101;53.478;6.158;2023-03-31T17:43:32;10.50;99.90
51500;DHT22;39101;53.478;6.158;2023-03-31T17:46:05;10.40;99.90
51500;DHT22;39101;53.478;6.158;2023-03-31T17:48:32;10.50;99.90
51500;DHT22;39101;53.478;6.158;2023-03-31T17:51:10;10.50;99.90
51500;DHT22;39101;53.478;6.158;2023-03-31T17:53:38;10.40;99.90
51500;DHT22;39101;53.478;6.158;2023-03-31T17:56:04;10.60;99.90
51500;DHT22;39101;53.478;6.158;2023-03-31T17:58:32;10.30;99.90
51500;DHT22;39101;53.478;6.158;2023-03-31T18:00:58;10.20;99.90
51500;DHT22;39101;53.478;6.158;2023-03-31T18:03:27;10.30;99.90
51500;DHT22;39101;53.478;6.158;2023-03-31T18:05:53;10.50;99.90
51500;DHT22;39101;53.478;6.158;2023-03-31T18:08:18;10.40;99.90
51500;DHT22;39101;53.478;6.158;2023-03-31T18:10:44;10.20;99.90
51500;DHT22;39101;53.478;6.158;2023-03-31T18:13:10;10.20;99.90
51500;DHT22;39101;53.478;6.158;2023-03-31T18:15:37;10.20;99.90
51500;DHT22;39101;53.478;6.158;2023-03-31T18:18:03;10.20;99.90
51500;DHT22;39101;53.478;6.158;2023-03-31T18:20:30;10.30;99.90
51500;DHT22;39101;53.478;6.158;2023-03-31T18:22:56;10.10;99.90
51500;DHT22;39101;53.478;6.158;2023-03-31T18:25:22;10.20;99.90
51500;DHT22;39101;53.478;6.158;2023-03-31T18:27:48;10.30;99.90
51500;DHT22;39101;53.478;6.158;2023-03-31T18:30:13;10.30;99.90